sensor_id;sensor_type;location;lat;lon;timestamp;pressure;altitude;pressure_sealevel;temperature;humidity
80308;BME280;69616;43.522;1.348;2023-11-19T00:01:25;100712.41;;;9.52;70.54
80308;BME280;69616;43.522;1.348;2023-11-19T00:03:50;100713.28;;;9.53;70.56
80308;BME280;69616;43.522;1.348;2023-11-19T00:06:15;100720.25;;;9.51;70.45
80308;BME280;69616;43.522;1.348;2023-11-19T00:08:42;100723.75;;;9.50;70.54
80308;BME280;69616;43.522;1.348;2023-11-19T00:11:09;100720.22;;;9.47;70.49
80308;BME280;69616;43.522;1.348;2023-11-19T00:13:34;100719.38;;;9.47;70.41
80308;BME280;69616;43.522;1.348;2023-11-19T00:15:59;100710.56;;;9.43;70.38
80308;BME280;69616;43.522;1.348;2023-11-19T00:18:25;100715.81;;;9.43;70.18
80308;BME280;69616;43.522;1.348;2023-11-19T00:20:50;100713.19;;;9.40;70.19
80308;BME280;69616;43.522;1.348;2023-11-19T00:23:16;100718.41;;;9.37;70.35
80308;BME280;69616;43.522;1.348;2023-11-19T00:25:41;100711.38;;;9.33;70.30
80308;BME280;69616;43.522;1.348;2023-11-19T00:28:06;100718.38;;;9.31;70.34
80308;BME280;69616;43.522;1.348;2023-11-19T00:30:32;100708.72;;;9.30;70.37
80308;BME280;69616;43.522;1.348;2023-11-19T00:32:57;100701.72;;;9.30;70.63
80308;BME280;69616;43.522;1.348;2023-11-19T00:35:23;100706.97;;;9.30;70.33
80308;BME280;69616;43.522;1.348;2023-11-19T00:37:48;100702.53;;;9.28;70.52
80308;BME280;69616;43.522;1.348;2023-11-19T00:40:14;100695.53;;;9.27;69.97
80308;BME280;69616;43.522;1.348;2023-11-19T00:42:41;100701.63;;;9.23;70.30
80308;BME280;69616;43.522;1.348;2023-11-19T00:45:06;100691.94;;;9.12;70.69
80308;BME280;69616;43.522;1.348;2023-11-19T00:47:38;100698.91;;;9.07;70.68
80308;BME280;69616;43.522;1.348;2023-11-19T00:50:04;100696.25;;;9.05;71.00
80308;BME280;69616;43.522;1.348;2023-11-19T00:52:29;100696.25;;;9.05;70.71
80308;BME280;69616;43.522;1.348;2023-11-19T00:54:55;100697.09;;;9.04;70.52
80308;BME280;69616;43.522;1.348;2023-11-19T00:57:20;100694.47;;;9.04;70.69
80308;BME280;69616;43.522;1.348;2023-11-19T00:59:45;100693.59;;;9.04;70.91
80308;BME280;69616;43.522;1.348;2023-11-19T01:02:12;100689.19;;;9.03;70.67
80308;BME280;69616;43.522;1.348;2023-11-19T01:04:39;100689.19;;;9.01;70.54
80308;BME280;69616;43.522;1.348;2023-11-19T01:07:05;100697.06;;;9.00;70.66
80308;BME280;69616;43.522;1.348;2023-11-19T01:09:32;100697.94;;;9.00;70.57
80308;BME280;69616;43.522;1.348;2023-11-19T01:11:58;100700.56;;;9.02;70.60
80308;BME280;69616;43.522;1.348;2023-11-19T01:14:25;100702.34;;;9.03;70.85
80308;BME280;69616;43.522;1.348;2023-11-19T01:16:51;100693.56;;;9.01;71.07
80308;BME280;69616;43.522;1.348;2023-11-19T01:19:16;100708.44;;;8.99;70.93
80308;BME280;69616;43.522;1.348;2023-11-19T01:21:41;100712.81;;;9.00;71.18
80308;BME280;69616;43.522;1.348;2023-11-19T01:24:08;100715.44;;;9.00;71.20
80308;BME280;69616;43.522;1.348;2023-11-19T01:26:34;100711.09;;;9.03;71.13
80308;BME280;69616;43.522;1.348;2023-11-19T01:29:00;100718.09;;;9.03;71.23
80308;BME280;69616;43.522;1.348;2023-11-19T01:31:26;100712.84;;;9.03;71.15
80308;BME280;69616;43.522;1.348;2023-11-19T01:33:51;100714.56;;;9.01;71.44
80308;BME280;69616;43.522;1.348;2023-11-19T01:36:17;100709.31;;;8.96;71.27
80308;BME280;69616;43.522;1.348;2023-11-19T01:38:42;100709.22;;;8.88;71.23
80308;BME280;69616;43.522;1.348;2023-11-19T01:41:07;100712.72;;;8.87;71.41
80308;BME280;69616;43.522;1.348;2023-11-19T01:43:34;100717.06;;;8.87;71.40
80308;BME280;69616;43.522;1.348;2023-11-19T01:46:01;100708.31;;;8.86;71.59
80308;BME280;69616;43.522;1.348;2023-11-19T01:48:27;100714.44;;;8.85;71.62
80308;BME280;69616;43.522;1.348;2023-11-19T01:50:53;100720.56;;;8.84;71.36
80308;BME280;69616;43.522;1.348;2023-11-19T01:53:19;100724.03;;;8.82;71.24
80308;BME280;69616;43.522;1.348;2023-11-19T01:55:46;100730.13;;;8.79;71.38
80308;BME280;69616;43.522;1.348;2023-11-19T01:58:12;100723.97;;;8.77;71.18
80308;BME280;69616;43.522;1.348;2023-11-19T02:00:38;100720.47;;;8.76;71.34
80308;BME280;69616;43.522;1.348;2023-11-19T02:03:05;100713.44;;;8.72;71.26
80308;BME280;69616;43.522;1.348;2023-11-19T02:05:32;100720.41;;;8.70;71.46
80308;BME280;69616;43.522;1.348;2023-11-19T02:07:58;100715.09;;;8.67;71.80
80308;BME280;69616;43.522;1.348;2023-11-19T02:10:23;100716.88;;;8.67;71.52
80308;BME280;69616;43.522;1.348;2023-11-19T02:12:50;100715.97;;;8.65;71.38
80308;BME280;69616;43.522;1.348;2023-11-19T02:15:16;100714.22;;;8.64;71.16
80308;BME280;69616;43.522;1.348;2023-11-19T02:17:44;100708.88;;;8.56;71.32
80308;BME280;69616;43.522;1.348;2023-11-19T02:20:10;100707.06;;;8.53;71.70
80308;BME280;69616;43.522;1.348;2023-11-19T02:22:37;100708.81;;;8.51;71.49
80308;BME280;69616;43.522;1.348;2023-11-19T02:25:06;100710.50;;;8.49;71.66
80308;BME280;69616;43.522;1.348;2023-11-19T02:27:46;100717.53;;;8.50;71.31
80308;BME280;69616;43.522;1.348;2023-11-19T02:30:15;100713.97;;;8.45;71.49
80308;BME280;69616;43.522;1.348;2023-11-19T02:32:43;100719.19;;;8.43;71.40
80308;BME280;69616;43.522;1.348;2023-11-19T02:35:08;100717.44;;;8.44;71.40
80308;BME280;69616;43.522;1.348;2023-11-19T02:37:34;100711.28;;;8.40;71.53
80308;BME280;69616;43.522;1.348;2023-11-19T02:40:00;100707.75;;;8.38;71.42
80308;BME280;69616;43.522;1.348;2023-11-19T02:42:29;100710.38;;;8.37;71.17
80308;BME280;69616;43.522;1.348;2023-11-19T02:44:54;100712.91;;;8.29;71.71
80308;BME280;69616;43.522;1.348;2023-11-19T02:47:20;100709.34;;;8.24;71.59
80308;BME280;69616;43.522;1.348;2023-11-19T02:49:46;100717.19;;;8.22;71.78
80308;BME280;69616;43.522;1.348;2023-11-19T02:52:13;100708.41;;;8.20;71.69
80308;BME280;69616;43.522;1.348;2023-11-19T02:54:39;100715.41;;;8.21;71.73
80308;BME280;69616;43.522;1.348;2023-11-19T02:57:06;100710.09;;;8.16;71.86
80308;BME280;69616;43.522;1.348;2023-11-19T02:59:35;100708.38;;;8.17;71.68
80308;BME280;69616;43.522;1.348;2023-11-19T03:02:05;100704.00;;;8.16;72.13
80308;BME280;69616;43.522;1.348;2023-11-19T03:04:32;100695.25;;;8.17;71.73
80308;BME280;69616;43.522;1.348;2023-11-19T03:06:58;100704.88;;;8.18;71.88
80308;BME280;69616;43.522;1.348;2023-11-19T03:09:23;100694.38;;;8.18;71.89
80308;BME280;69616;43.522;1.348;2023-11-19T03:11:49;100698.72;;;8.14;72.06
80308;BME280;69616;43.522;1.348;2023-11-19T03:14:15;100696.94;;;8.13;71.84
80308;BME280;69616;43.522;1.348;2023-11-19T03:16:40;100697.84;;;8.14;71.74
80308;BME280;69616;43.522;1.348;2023-11-19T03:19:05;100690.81;;;8.10;71.96
80308;BME280;69616;43.522;1.348;2023-11-19T03:21:31;100696.91;;;8.09;72.13
80308;BME280;69616;43.522;1.348;2023-11-19T03:23:57;100696.00;;;8.08;72.03
80308;BME280;69616;43.522;1.348;2023-11-19T03:26:26;100687.25;;;8.08;72.04
80308;BME280;69616;43.522;1.348;2023-11-19T03:28:51;100689.88;;;8.06;71.78
80308;BME280;69616;43.522;1.348;2023-11-19T03:31:17;100687.22;;;8.04;72.12
80308;BME280;69616;43.522;1.348;2023-11-19T03:33:42;100686.31;;;8.01;71.73
80308;BME280;69616;43.522;1.348;2023-11-19T03:36:07;100687.09;;;7.95;72.15
80308;BME280;69616;43.522;1.348;2023-11-19T03:38:34;100694.06;;;7.93;72.39
80308;BME280;69616;43.522;1.348;2023-11-19T03:40:59;100691.41;;;7.92;72.03
80308;BME280;69616;43.522;1.348;2023-11-19T03:43:25;100687.06;;;7.92;72.03
80308;BME280;69616;43.522;1.348;2023-11-19T03:45:50;100680.91;;;7.92;72.24
80308;BME280;69616;43.522;1.348;2023-11-19T03:48:16;100685.25;;;7.88;72.18
80308;BME280;69616;43.522;1.348;2023-11-19T03:50:42;100687.00;;;7.86;72.34
80308;BME280;69616;43.522;1.348;2023-11-19T03:53:07;100684.31;;;7.84;72.25
80308;BME280;69616;43.522;1.348;2023-11-19T03:55:32;100688.72;;;7.84;72.50
80308;BME280;69616;43.522;1.348;2023-11-19T03:57:58;100687.78;;;7.82;72.92
80308;BME280;69616;43.522;1.348;2023-11-19T04:00:23;100685.97;;;7.76;73.13
80308;BME280;69616;43.522;1.348;2023-11-19T04:02:49;100686.72;;;7.69;73.82
80308;BME280;69616;43.522;1.348;2023-11-19T04:05:14;100694.59;;;7.67;73.46
80308;BME280;69616;43.522;1.348;2023-11-19T04:07:39;100692.81;;;7.68;73.56
80308;BME280;69616;43.522;1.348;2023-11-19T04:10:05;100691.06;;;7.67;73.74
80308;BME280;69616;43.522;1.348;2023-11-19T04:12:31;100698.91;;;7.65;74.60
80308;BME280;69616;43.522;1.348;2023-11-19T04:14:56;100703.28;;;7.65;74.09
80308;BME280;69616;43.522;1.348;2023-11-19T04:17:21;100704.16;;;7.65;73.89
80308;BME280;69616;43.522;1.348;2023-11-19T04:19:48;100698.91;;;7.65;74.36
80308;BME280;69616;43.522;1.348;2023-11-19T04:22:13;100697.16;;;7.64;74.43
80308;BME280;69616;43.522;1.348;2023-11-19T04:24:39;100702.44;;;7.67;74.12
80308;BME280;69616;43.522;1.348;2023-11-19T04:27:06;100698.97;;;7.68;74.34
80308;BME280;69616;43.522;1.348;2023-11-19T04:29:31;100693.69;;;7.67;74.14
80308;BME280;69616;43.522;1.348;2023-11-19T04:31:57;100692.78;;;7.65;74.27
80308;BME280;69616;43.522;1.348;2023-11-19T04:34:22;100699.78;;;7.66;74.76
80308;BME280;69616;43.522;1.348;2023-11-19T04:36:48;100701.59;;;7.68;74.51
80308;BME280;69616;43.522;1.348;2023-11-19T04:39:14;100702.50;;;7.70;74.14
80308;BME280;69616;43.522;1.348;2023-11-19T04:41:50;100698.19;;;7.74;74.32
80308;BME280;69616;43.522;1.348;2023-11-19T04:44:17;100699.88;;;7.70;73.89
80308;BME280;69616;43.522;1.348;2023-11-19T04:46:43;100700.69;;;7.66;74.46
80308;BME280;69616;43.522;1.348;2023-11-19T04:49:09;100697.13;;;7.61;74.63
80308;BME280;69616;43.522;1.348;2023-11-19T04:51:43;100694.44;;;7.58;75.56
80308;BME280;69616;43.522;1.348;2023-11-19T04:54:09;100698.75;;;7.56;75.22
80308;BME280;69616;43.522;1.348;2023-11-19T04:56:36;100696.09;;;7.53;75.58
80308;BME280;69616;43.522;1.348;2023-11-19T04:59:03;100693.44;;;7.50;75.44
80308;BME280;69616;43.522;1.348;2023-11-19T05:01:28;100695.09;;;7.44;75.57
80308;BME280;69616;43.522;1.348;2023-11-19T05:03:54;100699.50;;;7.47;75.82
80308;BME280;69616;43.522;1.348;2023-11-19T05:06:19;100695.09;;;7.44;75.55
80308;BME280;69616;43.522;1.348;2023-11-19T05:08:45;100704.69;;;7.42;75.57
80308;BME280;69616;43.522;1.348;2023-11-19T05:11:11;100704.69;;;7.44;75.25
80308;BME280;69616;43.522;1.348;2023-11-19T05:13:38;100702.16;;;7.49;75.13
80308;BME280;69616;43.522;1.348;2023-11-19T05:16:04;100701.34;;;7.51;75.19
80308;BME280;69616;43.522;1.348;2023-11-19T05:18:30;100703.91;;;7.50;75.22
80308;BME280;69616;43.522;1.348;2023-11-19T05:20:55;100704.81;;;7.52;74.76
80308;BME280;69616;43.522;1.348;2023-11-19T05:23:20;100705.72;;;7.54;75.03
80308;BME280;69616;43.522;1.348;2023-11-19T05:25:46;100702.25;;;7.55;74.64
80308;BME280;69616;43.522;1.348;2023-11-19T05:28:12;100706.56;;;7.51;74.89
80308;BME280;69616;43.522;1.348;2023-11-19T05:30:39;100707.41;;;7.49;75.02
80308;BME280;69616;43.522;1.348;2023-11-19T05:33:05;100706.53;;;7.50;75.08
80308;BME280;69616;43.522;1.348;2023-11-19T05:35:34;100700.47;;;7.54;75.06
80308;BME280;69616;43.522;1.348;2023-11-19T05:38:00;100710.97;;;7.52;75.26
80308;BME280;69616;43.522;1.348;2023-11-19T05:40:27;100710.09;;;7.53;74.66
80308;BME280;69616;43.522;1.348;2023-11-19T05:42:53;100709.16;;;7.50;74.44
80308;BME280;69616;43.522;1.348;2023-11-19T05:45:18;100705.63;;;7.47;74.77
80308;BME280;69616;43.522;1.348;2023-11-19T05:47:43;100702.13;;;7.45;74.58
80308;BME280;69616;43.522;1.348;2023-11-19T05:50:09;100702.94;;;7.41;74.47
80308;BME280;69616;43.522;1.348;2023-11-19T05:52:35;100706.38;;;7.39;74.56
80308;BME280;69616;43.522;1.348;2023-11-19T05:55:01;100706.38;;;7.37;74.66
80308;BME280;69616;43.522;1.348;2023-11-19T05:57:30;100700.13;;;7.32;75.08
80308;BME280;69616;43.522;1.348;2023-11-19T05:59:55;100701.81;;;7.27;74.72
80308;BME280;69616;43.522;1.348;2023-11-19T06:02:20;100703.56;;;7.26;74.92
80308;BME280;69616;43.522;1.348;2023-11-19T06:04:46;100706.16;;;7.25;74.74
80308;BME280;69616;43.522;1.348;2023-11-19T06:07:13;100705.19;;;7.20;74.93
80308;BME280;69616;43.522;1.348;2023-11-19T06:09:40;100702.53;;;7.18;75.12
80308;BME280;69616;43.522;1.348;2023-11-19T06:12:06;100712.16;;;7.17;74.52
80308;BME280;69616;43.522;1.348;2023-11-19T06:14:32;100705.19;;;7.20;74.73
80308;BME280;69616;43.522;1.348;2023-11-19T06:16:58;100706.09;;;7.22;74.97
80308;BME280;69616;43.522;1.348;2023-11-19T06:19:23;100708.72;;;7.22;74.82
80308;BME280;69616;43.522;1.348;2023-11-19T06:21:50;100712.19;;;7.21;75.11
80308;BME280;69616;43.522;1.348;2023-11-19T06:24:15;100717.44;;;7.21;74.89
80308;BME280;69616;43.522;1.348;2023-11-19T06:26:40;100720.88;;;7.18;74.48
80308;BME280;69616;43.522;1.348;2023-11-19T06:29:06;100723.47;;;7.18;74.85
80308;BME280;69616;43.522;1.348;2023-11-19T06:31:31;100725.25;;;7.19;74.90
80308;BME280;69616;43.522;1.348;2023-11-19T06:33:57;100722.63;;;7.17;74.67
80308;BME280;69616;43.522;1.348;2023-11-19T06:36:22;100730.47;;;7.17;74.87
80308;BME280;69616;43.522;1.348;2023-11-19T06:38:47;100730.47;;;7.17;75.31
80308;BME280;69616;43.522;1.348;2023-11-19T06:41:13;100734.84;;;7.18;74.60
80308;BME280;69616;43.522;1.348;2023-11-19T06:43:38;100732.25;;;7.20;74.18
80308;BME280;69616;43.522;1.348;2023-11-19T06:46:04;100733.09;;;7.17;74.78
80308;BME280;69616;43.522;1.348;2023-11-19T06:48:34;100743.56;;;7.17;74.34
80308;BME280;69616;43.522;1.348;2023-11-19T06:51:00;100747.97;;;7.18;74.61
80308;BME280;69616;43.522;1.348;2023-11-19T06:53:25;100754.91;;;7.16;74.73
80308;BME280;69616;43.522;1.348;2023-11-19T06:55:53;100753.16;;;7.15;74.82
80308;BME280;69616;43.522;1.348;2023-11-19T06:58:18;100762.72;;;7.13;74.58
80308;BME280;69616;43.522;1.348;2023-11-19T07:00:44;100760.94;;;7.12;74.22
80308;BME280;69616;43.522;1.348;2023-11-19T07:03:11;100761.78;;;7.11;74.28
80308;BME280;69616;43.522;1.348;2023-11-19T07:05:36;100773.16;;;7.12;74.07
80308;BME280;69616;43.522;1.348;2023-11-19T07:08:06;100762.66;;;7.12;74.33
80308;BME280;69616;43.522;1.348;2023-11-19T07:10:32;100766.09;;;7.09;74.52
80308;BME280;69616;43.522;1.348;2023-11-19T07:12:59;100767.81;;;7.06;74.81
80308;BME280;69616;43.522;1.348;2023-11-19T07:15:24;100771.28;;;7.06;74.01
80308;BME280;69616;43.522;1.348;2023-11-19T07:17:49;100770.41;;;7.06;74.62
80308;BME280;69616;43.522;1.348;2023-11-19T07:20:15;100773.03;;;7.06;74.91
80308;BME280;69616;43.522;1.348;2023-11-19T07:22:43;100769.53;;;7.05;74.50
80308;BME280;69616;43.522;1.348;2023-11-19T07:25:13;100767.81;;;7.06;74.37
80308;BME280;69616;43.522;1.348;2023-11-19T07:27:39;100773.06;;;7.07;74.22
80308;BME280;69616;43.522;1.348;2023-11-19T07:30:05;100775.72;;;7.09;73.91
80308;BME280;69616;43.522;1.348;2023-11-19T07:32:32;100776.53;;;7.06;74.19
80308;BME280;69616;43.522;1.348;2023-11-19T07:34:58;100776.53;;;7.06;75.11
80308;BME280;69616;43.522;1.348;2023-11-19T07:37:23;100778.34;;;7.10;74.53
80308;BME280;69616;43.522;1.348;2023-11-19T07:39:49;100781.00;;;7.12;74.50
80308;BME280;69616;43.522;1.348;2023-11-19T07:42:14;100776.72;;;7.17;75.07
80308;BME280;69616;43.522;1.348;2023-11-19T07:44:40;100787.34;;;7.25;74.84
80308;BME280;69616;43.522;1.348;2023-11-19T07:47:06;100785.69;;;7.30;74.95
80308;BME280;69616;43.522;1.348;2023-11-19T07:49:32;100782.34;;;7.39;74.75
80308;BME280;69616;43.522;1.348;2023-11-19T07:51:58;100787.72;;;7.46;74.51
80308;BME280;69616;43.522;1.348;2023-11-19T07:54:23;100787.00;;;7.55;74.70
80308;BME280;69616;43.522;1.348;2023-11-19T07:56:49;100786.41;;;7.73;74.41
80308;BME280;69616;43.522;1.348;2023-11-19T07:59:15;100787.66;;;7.97;73.89
80308;BME280;69616;43.522;1.348;2023-11-19T08:01:41;100788.00;;;8.22;73.57
80308;BME280;69616;43.522;1.348;2023-11-19T08:04:06;100790.09;;;8.46;73.08
80308;BME280;69616;43.522;1.348;2023-11-19T08:06:32;100791.31;;;8.72;72.71
80308;BME280;69616;43.522;1.348;2023-11-19T08:08:57;100788.06;;;8.95;72.66
80308;BME280;69616;43.522;1.348;2023-11-19T08:11:22;100792.66;;;9.14;72.13
80308;BME280;69616;43.522;1.348;2023-11-19T08:13:48;100792.88;;;9.38;71.78
80308;BME280;69616;43.522;1.348;2023-11-19T08:16:13;100781.66;;;9.56;71.62
80308;BME280;69616;43.522;1.348;2023-11-19T08:18:42;100785.28;;;9.70;71.66
80308;BME280;69616;43.522;1.348;2023-11-19T08:21:08;100789.75;;;9.81;71.86
80308;BME280;69616;43.522;1.348;2023-11-19T08:23:33;100787.19;;;9.93;71.91
80308;BME280;69616;43.522;1.348;2023-11-19T08:25:59;100780.22;;;9.98;72.18
80308;BME280;69616;43.522;1.348;2023-11-19T08:28:25;100795.19;;;10.05;72.33
80308;BME280;69616;43.522;1.348;2023-11-19T08:30:50;100796.97;;;10.13;72.30
80308;BME280;69616;43.522;1.348;2023-11-19T08:33:16;100803.16;;;10.24;72.38
80308;BME280;69616;43.522;1.348;2023-11-19T08:35:42;100794.44;;;10.28;72.70
80308;BME280;69616;43.522;1.348;2023-11-19T08:38:07;100792.72;;;10.35;72.22
80308;BME280;69616;43.522;1.348;2023-11-19T08:40:32;100801.56;;;10.48;72.60
80308;BME280;69616;43.522;1.348;2023-11-19T08:42:58;100805.16;;;10.59;72.40
80308;BME280;69616;43.522;1.348;2023-11-19T08:45:23;100792.91;;;10.68;72.78
80308;BME280;69616;43.522;1.348;2023-11-19T08:47:48;100799.09;;;10.81;72.40
80308;BME280;69616;43.522;1.348;2023-11-19T08:50:14;100793.91;;;10.98;72.35
80308;BME280;69616;43.522;1.348;2023-11-19T08:52:39;100794.78;;;11.09;71.86
80308;BME280;69616;43.522;1.348;2023-11-19T08:55:05;100798.31;;;11.14;72.31
80308;BME280;69616;43.522;1.348;2023-11-19T08:57:31;100795.69;;;11.19;72.51
80308;BME280;69616;43.522;1.348;2023-11-19T08:59:57;100802.72;;;11.26;72.35
80308;BME280;69616;43.522;1.348;2023-11-19T09:02:23;100797.50;;;11.36;72.21
80308;BME280;69616;43.522;1.348;2023-11-19T09:04:48;100798.38;;;11.52;72.13
80308;BME280;69616;43.522;1.348;2023-11-19T09:07:14;100798.38;;;11.62;72.29
80308;BME280;69616;43.522;1.348;2023-11-19T09:09:39;100798.38;;;11.75;71.95
80308;BME280;69616;43.522;1.348;2023-11-19T09:12:05;100798.38;;;11.87;71.98
80308;BME280;69616;43.522;1.348;2023-11-19T09:14:30;100793.09;;;12.04;71.76
80308;BME280;69616;43.522;1.348;2023-11-19T09:16:56;100798.34;;;12.18;71.69
80308;BME280;69616;43.522;1.348;2023-11-19T09:19:23;100791.28;;;12.31;71.84
80308;BME280;69616;43.522;1.348;2023-11-19T09:21:48;100798.28;;;12.42;71.47
80308;BME280;69616;43.522;1.348;2023-11-19T09:24:14;100806.19;;;12.49;71.47
80308;BME280;69616;43.522;1.348;2023-11-19T09:26:40;100792.94;;;12.67;71.32
80308;BME280;69616;43.522;1.348;2023-11-19T09:29:07;100780.47;;;12.87;71.06
80308;BME280;69616;43.522;1.348;2023-11-19T09:31:33;100787.53;;;12.91;71.28
80308;BME280;69616;43.522;1.348;2023-11-19T09:33:58;100790.97;;;13.03;71.15
80308;BME280;69616;43.522;1.348;2023-11-19T09:36:24;100779.44;;;13.13;70.87
80308;BME280;69616;43.522;1.348;2023-11-19T09:38:49;100780.25;;;13.23;71.05
80308;BME280;69616;43.522;1.348;2023-11-19T09:41:15;100782.84;;;13.35;70.92
80308;BME280;69616;43.522;1.348;2023-11-19T09:43:42;100781.94;;;13.44;70.81
80308;BME280;69616;43.522;1.348;2023-11-19T09:46:12;100780.06;;;13.56;70.62
80308;BME280;69616;43.522;1.348;2023-11-19T09:48:39;100783.53;;;13.64;70.71
80308;BME280;69616;43.522;1.348;2023-11-19T09:51:09;100778.94;;;13.82;70.22
80308;BME280;69616;43.522;1.348;2023-11-19T09:53:35;100783.31;;;13.86;70.36
80308;BME280;69616;43.522;1.348;2023-11-19T09:56:05;100782.34;;;13.96;69.80
80308;BME280;69616;43.522;1.348;2023-11-19T09:58:32;100776.06;;;14.06;70.20
80308;BME280;69616;43.522;1.348;2023-11-19T10:00:58;100774.13;;;14.24;69.80
80308;BME280;69616;43.522;1.348;2023-11-19T10:03:25;100778.41;;;14.38;69.45
80308;BME280;69616;43.522;1.348;2023-11-19T10:05:53;100775.69;;;14.42;69.49
80308;BME280;69616;43.522;1.348;2023-11-19T10:08:20;100773.72;;;14.58;69.26
80308;BME280;69616;43.522;1.348;2023-11-19T10:10:45;100777.16;;;14.67;69.38
80308;BME280;69616;43.522;1.348;2023-11-19T10:13:10;100770.75;;;14.86;69.18
80308;BME280;69616;43.522;1.348;2023-11-19T10:15:37;100766.16;;;14.98;68.92
80308;BME280;69616;43.522;1.348;2023-11-19T10:18:03;100763.31;;;15.13;68.64
80308;BME280;69616;43.522;1.348;2023-11-19T10:20:37;100756.94;;;15.25;68.28
80308;BME280;69616;43.522;1.348;2023-11-19T10:23:03;100750.44;;;15.43;68.02
80308;BME280;69616;43.522;1.348;2023-11-19T10:25:29;100758.22;;;15.56;67.32
80308;BME280;69616;43.522;1.348;2023-11-19T10:27:56;100750.81;;;15.73;67.22
80308;BME280;69616;43.522;1.348;2023-11-19T10:30:29;100747.31;;;15.73;66.33
80308;BME280;69616;43.522;1.348;2023-11-19T10:33:08;100739.28;;;15.74;67.10
80308;BME280;69616;43.522;1.348;2023-11-19T10:35:56;100742.56;;;15.92;66.83
80308;BME280;69616;43.522;1.348;2023-11-19T10:38:24;100738.97;;;15.95;66.85
80308;BME280;69616;43.522;1.348;2023-11-19T10:40:50;100731.38;;;16.20;66.35
80308;BME280;69616;43.522;1.348;2023-11-19T10:43:16;100735.41;;;16.41;66.10
80308;BME280;69616;43.522;1.348;2023-11-19T10:45:42;100734.28;;;16.53;65.55
80308;BME280;69616;43.522;1.348;2023-11-19T10:48:08;100731.34;;;16.65;65.24
80308;BME280;69616;43.522;1.348;2023-11-19T10:50:37;100717.94;;;16.70;65.14
80308;BME280;69616;43.522;1.348;2023-11-19T10:53:03;100722.97;;;16.83;65.24
80308;BME280;69616;43.522;1.348;2023-11-19T10:55:34;100719.06;;;17.01;64.09
80308;BME280;69616;43.522;1.348;2023-11-19T10:58:10;100719.59;;;17.15;64.68
80308;BME280;69616;43.522;1.348;2023-11-19T11:00:47;100717.69;;;17.20;64.55
80308;BME280;69616;43.522;1.348;2023-11-19T11:03:20;100710.25;;;17.35;63.67
80308;BME280;69616;43.522;1.348;2023-11-19T11:05:50;100707.13;;;17.54;63.91
80308;BME280;69616;43.522;1.348;2023-11-19T11:08:17;100707.78;;;17.62;63.74
80308;BME280;69616;43.522;1.348;2023-11-19T11:10:45;100703.91;;;17.75;63.56
80308;BME280;69616;43.522;1.348;2023-11-19T11:13:11;100699.13;;;17.87;62.96
80308;BME280;69616;43.522;1.348;2023-11-19T11:15:38;100693.00;;;17.83;63.34
80308;BME280;69616;43.522;1.348;2023-11-19T11:18:08;100694.47;;;17.95;63.02
80308;BME280;69616;43.522;1.348;2023-11-19T11:20:34;100687.22;;;18.00;63.07
80308;BME280;69616;43.522;1.348;2023-11-19T11:28:33;100683.09;;;18.51;60.82
80308;BME280;69616;43.522;1.348;2023-11-19T11:33:43;100680.09;;;18.62;59.43
80308;BME280;69616;43.522;1.348;2023-11-19T11:36:22;100668.34;;;18.70;60.38
80308;BME280;69616;43.522;1.348;2023-11-19T11:38:49;100660.81;;;18.83;59.94
80308;BME280;69616;43.522;1.348;2023-11-19T11:41:22;100661.63;;;18.85;59.82
80308;BME280;69616;43.522;1.348;2023-11-19T11:43:52;100656.59;;;19.04;60.23
80308;BME280;69616;43.522;1.348;2023-11-19T11:49:02;100653.59;;;19.40;58.38
80308;BME280;69616;43.522;1.348;2023-11-19T11:54:09;100634.69;;;19.46;58.21
80308;BME280;69616;43.522;1.348;2023-11-19T11:56:38;100641.44;;;19.57;57.80
80308;BME280;69616;43.522;1.348;2023-11-19T11:59:07;100628.75;;;19.63;57.00
80308;BME280;69616;43.522;1.348;2023-11-19T12:01:33;100631.03;;;19.74;56.37
80308;BME280;69616;43.522;1.348;2023-11-19T12:03:58;100623.53;;;19.84;56.19
80308;BME280;69616;43.522;1.348;2023-11-19T12:06:24;100616.22;;;19.91;56.29
80308;BME280;69616;43.522;1.348;2023-11-19T12:08:52;100614.81;;;20.04;55.75
80308;BME280;69616;43.522;1.348;2023-11-19T12:11:17;100616.22;;;20.15;55.04
80308;BME280;69616;43.522;1.348;2023-11-19T12:13:55;100617.13;;;20.14;54.97
80308;BME280;69616;43.522;1.348;2023-11-19T12:16:27;100610.63;;;20.21;54.94
80308;BME280;69616;43.522;1.348;2023-11-19T12:18:54;100610.63;;;20.21;54.89
80308;BME280;69616;43.522;1.348;2023-11-19T12:21:30;100610.75;;;20.18;55.25
80308;BME280;69616;43.522;1.348;2023-11-19T12:23:57;100605.03;;;20.27;55.04
80308;BME280;69616;43.522;1.348;2023-11-19T12:26:35;100597.56;;;20.35;55.11
80308;BME280;69616;43.522;1.348;2023-11-19T12:29:01;100590.63;;;20.54;54.58
80308;BME280;69616;43.522;1.348;2023-11-19T12:31:28;100596.34;;;20.67;53.73
80308;BME280;69616;43.522;1.348;2023-11-19T12:33:54;100592.84;;;20.64;53.95
80308;BME280;69616;43.522;1.348;2023-11-19T12:36:19;100584.84;;;20.64;54.12
80308;BME280;69616;43.522;1.348;2023-11-19T12:38:45;100590.72;;;20.73;54.00
80308;BME280;69616;43.522;1.348;2023-11-19T12:41:11;100583.28;;;20.81;53.13
80308;BME280;69616;43.522;1.348;2023-11-19T12:43:38;100583.75;;;20.91;53.16
80308;BME280;69616;43.522;1.348;2023-11-19T12:46:20;100576.41;;;20.96;53.20
80308;BME280;69616;43.522;1.348;2023-11-19T12:48:47;100579.97;;;21.17;53.16
80308;BME280;69616;43.522;1.348;2023-11-19T12:51:13;100579.28;;;21.33;51.85
80308;BME280;69616;43.522;1.348;2023-11-19T12:53:49;100577.53;;;21.32;51.76
80308;BME280;69616;43.522;1.348;2023-11-19T12:56:15;100569.78;;;21.46;52.08
80308;BME280;69616;43.522;1.348;2023-11-19T12:58:41;100565.06;;;21.51;51.88
80308;BME280;69616;43.522;1.348;2023-11-19T13:01:08;100565.22;;;21.48;51.77
80308;BME280;69616;43.522;1.348;2023-11-19T13:03:37;100562.38;;;21.51;51.81
80308;BME280;69616;43.522;1.348;2023-11-19T13:06:13;100558.91;;;21.49;50.73
80308;BME280;69616;43.522;1.348;2023-11-19T13:08:45;100557.03;;;21.51;51.15